Time;durP1;ratioP1;P1;durP2;ratioP2;P2;SDS_P1;SDS_P2;PMS_P1;PMS_P2;Temp;Humidity;BMP_temperature;BMP_pressure;BME280_temperature;BME280_humidity;BME280_pressure;Samples;Min_cycle;Max_cycle;Signal;HPM_P1;HPM_P2
2022/12/14 00:00:48;;;;;;;40.88;19.83;;;;;;;;;;5046236;28;20044;-71
2022/12/14 00:03:16;;;;;;;46.35;20.20;;;;;;;;;;5046101;28;20411;-71
2022/12/14 00:05:43;;;;;;;50.30;22.05;;;;;;;;;;5039995;28;20063;-71
2022/12/14 00:08:12;;;;;;;39.00;19.90;;;;;;;;;;5044897;28;20049;-71
2022/12/14 00:10:40;;;;;;;41.10;19.83;;;;;;;;;;5047425;28;20563;-71
2022/12/14 00:13:08;;;;;;;48.13;21.17;;;;;;;;;;5044243;28;20052;-71
2022/12/14 00:15:37;;;;;;;46.88;21.17;;;;;;;;;;5066927;28;20063;-71
2022/12/14 00:18:04;;;;;;;46.20;20.85;;;;;;;;;;5068432;28;20103;-71
2022/12/14 00:20:31;;;;;;;51.65;22.15;;;;;;;;;;5048837;28;20040;-71
2022/12/14 00:22:58;;;;;;;52.45;23.42;;;;;;;;;;5050557;28;20060;-71
2022/12/14 00:25:27;;;;;;;52.70;24.58;;;;;;;;;;5043784;28;20071;-71
2022/12/14 00:27:54;;;;;;;57.28;23.92;;;;;;;;;;5066993;28;20056;-71
2022/12/14 00:30:22;;;;;;;48.17;21.48;;;;;;;;;;5049455;28;20048;-71
2022/12/14 00:32:49;;;;;;;50.42;20.90;;;;;;;;;;5053339;28;20064;-71
2022/12/14 00:35:17;;;;;;;49.53;21.33;;;;;;;;;;5063788;28;20048;-71
2022/12/14 00:37:44;;;;;;;48.53;19.65;;;;;;;;;;5061273;28;20055;-71
2022/12/14 00:40:12;;;;;;;53.53;22.30;;;;;;;;;;5045864;28;20049;-71
2022/12/14 00:42:41;;;;;;;48.30;21.08;;;;;;;;;;5043387;28;20132;-71
2022/12/14 00:45:08;;;;;;;47.45;21.38;;;;;;;;;;5064605;28;20068;-71
2022/12/14 00:47:36;;;;;;;51.63;21.67;;;;;;;;;;5071035;28;20435;-71
2022/12/14 00:50:03;;;;;;;49.08;21.13;;;;;;;;;;5045371;28;20058;-72
2022/12/14 00:52:30;;;;;;;45.33;21.13;;;;;;;;;;5048724;28;20049;-71
2022/12/14 00:54:57;;;;;;;44.00;20.67;;;;;;;;;;5047652;28;20554;-71
2022/12/14 00:57:25;;;;;;;44.95;20.58;;;;;;;;;;5045935;28;20045;-71
2022/12/14 00:59:53;;;;;;;44.65;20.65;;;;;;;;;;5047003;28;20121;-71
2022/12/14 01:02:21;;;;;;;46.22;20.95;;;;;;;;;;5048384;28;20049;-72
2022/12/14 01:04:48;;;;;;;47.25;21.08;;;;;;;;;;5043730;28;20060;-71
2022/12/14 01:07:15;;;;;;;49.45;21.35;;;;;;;;;;5043511;28;20052;-71
2022/12/14 01:09:42;;;;;;;47.70;21.20;;;;;;;;;;5046696;28;20046;-71
2022/12/14 01:12:09;;;;;;;46.53;20.58;;;;;;;;;;5048898;28;20114;-71
2022/12/14 01:14:37;;;;;;;45.78;21.20;;;;;;;;;;5053091;28;20057;-71
2022/12/14 01:17:05;;;;;;;52.40;24.17;;;;;;;;;;5041822;28;20068;-71
2022/12/14 01:19:34;;;;;;;54.92;24.30;;;;;;;;;;5046526;28;20075;-71
2022/12/14 01:22:01;;;;;;;46.10;21.52;;;;;;;;;;5050218;28;20052;-70
2022/12/14 01:24:28;;;;;;;45.05;20.17;;;;;;;;;;5048359;28;20104;-71
2022/12/14 01:26:56;;;;;;;44.17;20.90;;;;;;;;;;5053320;28;21267;-71
2022/12/14 01:29:23;;;;;;;48.08;22.20;;;;;;;;;;5052352;28;20049;-70
2022/12/14 01:31:50;;;;;;;46.83;20.50;;;;;;;;;;5048922;28;20107;-71
2022/12/14 01:34:19;;;;;;;46.92;21.02;;;;;;;;;;5038886;28;20060;-70
2022/12/14 01:36:46;;;;;;;47.17;21.00;;;;;;;;;;5044812;28;20068;-70
2022/12/14 01:39:14;;;;;;;44.67;19.90;;;;;;;;;;5048127;28;20053;-70
2022/12/14 01:41:42;;;;;;;43.22;20.35;;;;;;;;;;5048575;28;20049;-70
2022/12/14 01:44:33;;;;;;;46.90;20.45;;;;;;;;;;5045714;28;20048;-70
2022/12/14 01:47:02;;;;;;;45.65;21.35;;;;;;;;;;5021805;28;20056;-70
2022/12/14 01:49:33;;;;;;;46.28;20.33;;;;;;;;;;5040429;28;20542;-70
2022/12/14 01:52:01;;;;;;;48.00;21.60;;;;;;;;;;5041256;28;20055;-70
2022/12/14 01:54:30;;;;;;;47.95;21.45;;;;;;;;;;5039021;28;20050;-71
2022/12/14 01:56:58;;;;;;;50.70;22.20;;;;;;;;;;5038987;28;20057;-70
2022/12/14 01:59:28;;;;;;;49.42;21.20;;;;;;;;;;5040421;28;20044;-70
2022/12/14 02:01:56;;;;;;;55.03;23.00;;;;;;;;;;5034398;28;20045;-70
2022/12/14 02:04:23;;;;;;;43.35;19.98;;;;;;;;;;5039163;28;20053;-71
2022/12/14 02:06:52;;;;;;;46.55;20.52;;;;;;;;;;5035641;28;20053;-70
2022/12/14 02:09:24;;;;;;;49.50;20.52;;;;;;;;;;5038772;28;20421;-70
2022/12/14 02:11:55;;;;;;;46.60;20.05;;;;;;;;;;5038047;28;20506;-70
2022/12/14 02:14:23;;;;;;;45.55;21.00;;;;;;;;;;5035869;28;20128;-70
2022/12/14 02:16:50;;;;;;;43.40;20.08;;;;;;;;;;5038557;28;20065;-70
2022/12/14 02:19:17;;;;;;;46.80;20.70;;;;;;;;;;5039937;28;20735;-70
2022/12/14 02:21:56;;;;;;;46.17;19.35;;;;;;;;;;5036542;28;20057;-70
2022/12/14 02:24:34;;;;;;;39.35;18.45;;;;;;;;;;5035049;28;20353;-70
2022/12/14 02:27:07;;;;;;;45.65;19.85;;;;;;;;;;5040951;28;20056;-70
2022/12/14 02:29:44;;;;;;;41.05;18.85;;;;;;;;;;5033637;28;20053;-70
2022/12/14 02:32:16;;;;;;;43.25;19.05;;;;;;;;;;5044327;28;20041;-70
2022/12/14 02:34:50;;;;;;;48.38;19.33;;;;;;;;;;5036081;28;20053;-70
2022/12/14 02:37:21;;;;;;;42.72;18.55;;;;;;;;;;5036631;28;20072;-70
2022/12/14 02:39:55;;;;;;;46.45;19.48;;;;;;;;;;5040007;28;20512;-70
2022/12/14 02:42:26;;;;;;;46.42;20.75;;;;;;;;;;5040401;28;20071;-70
2022/12/14 02:44:59;;;;;;;49.00;20.88;;;;;;;;;;5041957;28;20060;-70
2022/12/14 02:47:28;;;;;;;41.88;20.02;;;;;;;;;;5039138;28;20045;-70
2022/12/14 02:50:01;;;;;;;45.53;20.42;;;;;;;;;;5055918;28;20606;-70
2022/12/14 02:52:33;;;;;;;47.30;21.20;;;;;;;;;;5044102;28;20044;-70
2022/12/14 02:55:02;;;;;;;47.88;20.80;;;;;;;;;;5061311;28;20060;-70
2022/12/14 02:57:32;;;;;;;43.45;20.13;;;;;;;;;;5064962;28;20052;-70
2022/12/14 03:00:02;;;;;;;50.75;20.90;;;;;;;;;;5058673;28;20044;-70
2022/12/14 03:02:31;;;;;;;47.55;20.58;;;;;;;;;;5061014;28;20065;-70
2022/12/14 03:04:59;;;;;;;46.67;20.30;;;;;;;;;;5062371;28;20056;-71
2022/12/14 03:07:40;;;;;;;45.55;20.95;;;;;;;;;;5045364;28;20059;-70
2022/12/14 03:10:11;;;;;;;45.38;20.95;;;;;;;;;;5045147;28;20106;-70
2022/12/14 03:12:41;;;;;;;43.70;19.33;;;;;;;;;;5064381;28;20099;-70
2022/12/14 03:15:12;;;;;;;47.03;21.10;;;;;;;;;;5050620;28;20040;-70
2022/12/14 03:17:40;;;;;;;48.65;20.98;;;;;;;;;;5062380;28;20055;-71
2022/12/14 03:20:09;;;;;;;47.08;20.98;;;;;;;;;;5061830;28;20513;-70
2022/12/14 03:22:39;;;;;;;47.22;20.40;;;;;;;;;;5060382;28;20049;-71
2022/12/14 03:25:09;;;;;;;46.53;20.60;;;;;;;;;;5069750;28;20052;-71
2022/12/14 03:27:39;;;;;;;44.22;20.83;;;;;;;;;;5067197;28;20075;-70
2022/12/14 03:30:07;;;;;;;46.97;19.73;;;;;;;;;;5063502;28;20041;-70
2022/12/14 03:32:38;;;;;;;43.70;19.80;;;;;;;;;;5056660;28;20407;-70
2022/12/14 03:35:08;;;;;;;46.63;20.40;;;;;;;;;;5069045;28;20052;-70
2022/12/14 03:37:39;;;;;;;47.53;20.42;;;;;;;;;;5066253;28;20407;-70
2022/12/14 03:40:09;;;;;;;46.97;20.73;;;;;;;;;;5058746;28;20081;-71
2022/12/14 03:42:40;;;;;;;46.70;20.30;;;;;;;;;;5072528;28;20051;-70
2022/12/14 03:45:12;;;;;;;42.70;19.27;;;;;;;;;;5056060;28;20060;-70
2022/12/14 03:47:50;;;;;;;47.00;20.23;;;;;;;;;;5074687;28;20498;-70
2022/12/14 03:50:20;;;;;;;45.90;19.83;;;;;;;;;;5071694;28;20060;-70
2022/12/14 03:52:52;;;;;;;53.08;19.55;;;;;;;;;;5048216;28;20567;-70
2022/12/14 03:55:24;;;;;;;47.17;19.55;;;;;;;;;;5069138;28;20056;-70
2022/12/14 03:58:00;;;;;;;46.15;21.08;;;;;;;;;;5066213;28;20049;-70
2022/12/14 04:00:31;;;;;;;46.30;19.60;;;;;;;;;;5040865;28;20044;-70
2022/12/14 04:03:03;;;;;;;43.33;19.50;;;;;;;;;;5067006;28;20054;-70
2022/12/14 04:05:33;;;;;;;46.67;20.23;;;;;;;;;;5043904;28;20060;-71
2022/12/14 04:08:04;;;;;;;47.58;20.60;;;;;;;;;;5056654;28;20162;-71
2022/12/14 04:18:59;;;;;;;45.50;19.50;;;;;;;;;;5056747;28;20131;-70
2022/12/14 04:21:32;;;;;;;42.22;17.92;;;;;;;;;;5064099;28;20467;-71
2022/12/14 04:26:49;;;;;;;44.55;19.45;;;;;;;;;;5040206;28;20089;-70
2022/12/14 04:32:07;;;;;;;46.10;19.65;;;;;;;;;;5065231;28;20053;-70
2022/12/14 04:34:37;;;;;;;45.15;19.38;;;;;;;;;;5072642;28;20052;-70
2022/12/14 04:37:06;;;;;;;44.58;19.58;;;;;;;;;;5076158;28;20127;-70
2022/12/14 04:39:38;;;;;;;40.60;19.23;;;;;;;;;;5073975;28;20048;-70
2022/12/14 04:42:06;;;;;;;40.60;19.45;;;;;;;;;;5057409;28;20087;-70
2022/12/14 04:44:35;;;;;;;41.25;18.30;;;;;;;;;;5061949;28;20071;-70
2022/12/14 04:47:03;;;;;;;48.72;18.88;;;;;;;;;;5067207;28;20052;-71
2022/12/14 04:49:32;;;;;;;45.70;19.83;;;;;;;;;;5065065;28;20063;-71
2022/12/14 04:52:04;;;;;;;46.42;20.25;;;;;;;;;;5070296;28;20048;-70
2022/12/14 04:54:35;;;;;;;44.33;18.95;;;;;;;;;;5053266;28;20478;-70
2022/12/14 04:57:07;;;;;;;45.47;20.08;;;;;;;;;;5069932;28;20048;-70
2022/12/14 04:59:34;;;;;;;43.15;19.88;;;;;;;;;;5060430;28;20746;-70
2022/12/14 05:02:06;;;;;;;45.55;19.63;;;;;;;;;;5069908;28;20173;-70
2022/12/14 05:04:40;;;;;;;43.22;19.25;;;;;;;;;;5062515;28;20053;-70
2022/12/14 05:07:12;;;;;;;42.25;19.15;;;;;;;;;;5066082;28;20074;-70
2022/12/14 05:09:41;;;;;;;43.60;19.92;;;;;;;;;;5061502;28;20048;-70
2022/12/14 05:12:11;;;;;;;42.88;18.98;;;;;;;;;;5070917;28;20059;-70
2022/12/14 05:14:41;;;;;;;44.10;19.15;;;;;;;;;;5065933;28;20459;-70
2022/12/14 05:17:08;;;;;;;41.83;19.02;;;;;;;;;;5058552;28;20048;-70
2022/12/14 05:19:35;;;;;;;41.65;18.88;;;;;;;;;;5050168;28;20052;-71
2022/12/14 05:22:05;;;;;;;43.35;20.20;;;;;;;;;;5070119;28;20081;-70
2022/12/14 05:24:34;;;;;;;47.17;19.65;;;;;;;;;;5053167;28;20063;-70
2022/12/14 05:27:01;;;;;;;45.15;19.20;;;;;;;;;;5069745;28;20125;-70
2022/12/14 05:29:28;;;;;;;41.88;19.02;;;;;;;;;;5073766;28;20051;-71
2022/12/14 05:31:55;;;;;;;43.88;19.13;;;;;;;;;;5064188;28;20523;-70
2022/12/14 05:34:23;;;;;;;42.90;19.05;;;;;;;;;;5068331;28;20044;-70
2022/12/14 05:36:50;;;;;;;45.92;20.92;;;;;;;;;;5063594;28;20454;-70
2022/12/14 05:39:17;;;;;;;55.08;23.30;;;;;;;;;;5072564;28;20437;-70
2022/12/14 05:41:46;;;;;;;41.88;18.60;;;;;;;;;;5068692;28;20047;-70
2022/12/14 05:44:13;;;;;;;44.65;19.33;;;;;;;;;;5043553;28;20064;-70
2022/12/14 05:46:41;;;;;;;49.20;22.35;;;;;;;;;;5064034;28;20056;-70
2022/12/14 05:49:08;;;;;;;49.92;21.30;;;;;;;;;;5042050;28;20114;-70
2022/12/14 05:51:35;;;;;;;50.80;21.75;;;;;;;;;;5069047;28;20082;-70
2022/12/14 05:54:02;;;;;;;50.58;20.83;;;;;;;;;;5068693;28;20052;-70
2022/12/14 05:56:30;;;;;;;47.45;20.55;;;;;;;;;;5060761;28;20053;-70
2022/12/14 05:58:58;;;;;;;45.88;20.05;;;;;;;;;;5061428;28;20049;-71
2022/12/14 06:01:26;;;;;;;51.50;22.30;;;;;;;;;;5062540;28;20048;-70
2022/12/14 06:03:53;;;;;;;57.33;23.50;;;;;;;;;;5067975;28;20052;-70
2022/12/14 06:06:21;;;;;;;57.38;23.67;;;;;;;;;;5069054;28;20403;-70
2022/12/14 06:08:48;;;;;;;53.35;23.23;;;;;;;;;;5047362;28;20076;-70
2022/12/14 06:11:16;;;;;;;53.15;22.70;;;;;;;;;;5063785;28;20056;-70
2022/12/14 06:13:43;;;;;;;57.30;24.38;;;;;;;;;;5069985;28;20041;-71
2022/12/14 06:16:13;;;;;;;53.45;22.70;;;;;;;;;;5066275;28;20048;-70
2022/12/14 06:18:44;;;;;;;55.42;22.92;;;;;;;;;;5066282;28;20403;-70
2022/12/14 06:21:12;;;;;;;64.82;25.05;;;;;;;;;;5071539;28;20044;-70
2022/12/14 06:23:39;;;;;;;55.42;23.10;;;;;;;;;;5066871;28;20056;-70
2022/12/14 06:26:06;;;;;;;51.72;21.85;;;;;;;;;;5063352;28;20049;-70
2022/12/14 06:28:34;;;;;;;49.65;20.88;;;;;;;;;;5063017;28;20060;-70
2022/12/14 06:31:01;;;;;;;54.92;20.83;;;;;;;;;;5064110;28;20047;-70
2022/12/14 06:33:30;;;;;;;51.03;20.77;;;;;;;;;;5066317;28;20051;-70
2022/12/14 06:35:57;;;;;;;44.78;20.08;;;;;;;;;;5057813;28;20059;-70
2022/12/14 06:38:24;;;;;;;47.13;21.20;;;;;;;;;;5060762;28;20048;-70
2022/12/14 06:40:51;;;;;;;48.30;20.67;;;;;;;;;;5061199;28;20047;-70
2022/12/14 06:43:19;;;;;;;44.33;20.33;;;;;;;;;;5046255;28;20052;-70
2022/12/14 06:45:46;;;;;;;47.63;20.88;;;;;;;;;;5069601;28;20048;-69
2022/12/14 06:48:14;;;;;;;46.13;20.23;;;;;;;;;;5060302;28;20517;-70
2022/12/14 06:50:42;;;;;;;51.55;20.70;;;;;;;;;;5060950;28;20044;-70
2022/12/14 06:53:12;;;;;;;50.85;21.63;;;;;;;;;;5064279;28;20052;-70
2022/12/14 06:55:39;;;;;;;56.92;22.63;;;;;;;;;;5056759;28;20067;-70
2022/12/14 06:58:06;;;;;;;54.47;23.80;;;;;;;;;;5062429;28;20373;-70
2022/12/14 07:00:34;;;;;;;67.22;27.10;;;;;;;;;;5063342;28;20084;-70
2022/12/14 07:03:01;;;;;;;57.50;25.15;;;;;;;;;;5046147;28;20064;-70
2022/12/14 07:05:28;;;;;;;47.53;21.63;;;;;;;;;;5066263;28;20044;-70
2022/12/14 07:07:57;;;;;;;53.83;21.05;;;;;;;;;;5063207;28;20399;-71
2022/12/14 07:10:24;;;;;;;49.83;21.25;;;;;;;;;;5043605;28;20053;-71
2022/12/14 07:12:52;;;;;;;49.08;21.00;;;;;;;;;;5064588;28;20079;-70
2022/12/14 07:15:19;;;;;;;46.88;20.55;;;;;;;;;;5068588;28;20049;-70
2022/12/14 07:17:46;;;;;;;46.10;21.90;;;;;;;;;;5043021;28;20076;-70
2022/12/14 07:20:14;;;;;;;49.10;21.25;;;;;;;;;;5063084;28;20048;-69
2022/12/14 07:22:41;;;;;;;53.00;21.55;;;;;;;;;;5041900;28;20048;-69
2022/12/14 07:25:10;;;;;;;46.10;20.33;;;;;;;;;;5067008;28;20522;-69
2022/12/14 07:27:37;;;;;;;47.20;20.33;;;;;;;;;;5063553;28;20055;-70
2022/12/14 07:30:05;;;;;;;47.03;19.88;;;;;;;;;;5066689;28;20060;-69
2022/12/14 07:32:32;;;;;;;46.83;19.23;;;;;;;;;;5042570;28;20052;-70
2022/12/14 07:34:59;;;;;;;40.92;19.50;;;;;;;;;;5065603;28;20045;-70
2022/12/14 07:37:27;;;;;;;44.03;18.02;;;;;;;;;;5063165;28;20057;-69
2022/12/14 07:39:54;;;;;;;42.22;17.70;;;;;;;;;;5047457;28;20491;-70
2022/12/14 07:42:22;;;;;;;47.72;20.08;;;;;;;;;;5066208;28;20044;-70
2022/12/14 07:44:50;;;;;;;51.58;21.98;;;;;;;;;;5064017;28;20049;-70
2022/12/14 07:47:17;;;;;;;45.60;20.05;;;;;;;;;;5063890;28;20054;-69
2022/12/14 07:49:44;;;;;;;49.50;20.63;;;;;;;;;;5065873;28;20056;-71
2022/12/14 07:52:12;;;;;;;43.15;19.73;;;;;;;;;;5055554;28;20067;-71
2022/12/14 07:54:39;;;;;;;46.85;20.77;;;;;;;;;;5063035;28;20058;-71
2022/12/14 07:57:06;;;;;;;50.83;20.13;;;;;;;;;;5058458;28;20060;-71
2022/12/14 07:59:35;;;;;;;43.90;19.88;;;;;;;;;;5058207;28;20064;-71
2022/12/14 08:02:02;;;;;;;49.05;19.95;;;;;;;;;;5062701;28;20052;-71
2022/12/14 08:04:29;;;;;;;42.42;19.65;;;;;;;;;;5066050;28;20060;-71
2022/12/14 08:06:56;;;;;;;43.65;19.73;;;;;;;;;;5062302;28;20049;-71
2022/12/14 08:09:24;;;;;;;45.70;21.08;;;;;;;;;;5042092;28;20484;-71
2022/12/14 08:11:51;;;;;;;53.58;20.75;;;;;;;;;;5046276;28;20056;-71
2022/12/14 08:14:19;;;;;;;47.92;20.70;;;;;;;;;;5069186;28;20048;-71
2022/12/14 08:16:49;;;;;;;55.78;24.50;;;;;;;;;;5071401;28;20059;-71
2022/12/14 08:19:16;;;;;;;58.60;24.25;;;;;;;;;;5065351;28;20044;-70
2022/12/14 08:21:44;;;;;;;61.78;25.63;;;;;;;;;;5059661;28;20048;-71
2022/12/14 08:24:12;;;;;;;70.05;27.63;;;;;;;;;;5065996;28;20120;-70
2022/12/14 08:26:40;;;;;;;65.05;28.23;;;;;;;;;;5061628;28;20071;-71
2022/12/14 08:29:08;;;;;;;64.95;27.08;;;;;;;;;;5070869;28;20415;-71
2022/12/14 08:31:35;;;;;;;57.33;26.60;;;;;;;;;;5074768;28;20171;-70
2022/12/14 08:34:04;;;;;;;66.20;27.67;;;;;;;;;;5054150;28;20052;-71
2022/12/14 08:36:32;;;;;;;61.25;26.38;;;;;;;;;;5067447;28;20105;-71
2022/12/14 08:39:01;;;;;;;62.50;24.05;;;;;;;;;;5062328;28;20052;-72
2022/12/14 08:41:28;;;;;;;65.65;26.70;;;;;;;;;;5064804;28;20050;-71
2022/12/14 08:43:56;;;;;;;61.60;26.90;;;;;;;;;;5069075;28;20071;-71
2022/12/14 08:46:24;;;;;;;58.60;26.27;;;;;;;;;;5067211;28;20048;-71
2022/12/14 08:48:52;;;;;;;68.63;27.05;;;;;;;;;;5046046;28;20057;-71
2022/12/14 08:51:21;;;;;;;56.50;24.50;;;;;;;;;;5045737;28;20056;-71
2022/12/14 08:53:48;;;;;;;65.55;26.67;;;;;;;;;;5045489;28;20037;-71
2022/12/14 08:56:17;;;;;;;67.07;27.67;;;;;;;;;;5044908;28;20063;-71
2022/12/14 08:58:45;;;;;;;54.15;24.92;;;;;;;;;;5043517;28;20057;-71
2022/12/14 09:01:13;;;;;;;66.15;26.60;;;;;;;;;;5051374;28;20072;-71
2022/12/14 09:03:41;;;;;;;51.47;22.38;;;;;;;;;;5049668;28;20548;-71
2022/12/14 09:06:09;;;;;;;48.17;22.13;;;;;;;;;;5048719;28;20796;-71
2022/12/14 09:08:38;;;;;;;48.90;21.73;;;;;;;;;;5046230;28;20064;-71
2022/12/14 09:11:06;;;;;;;53.80;23.50;;;;;;;;;;5045764;28;20080;-71
2022/12/14 09:13:34;;;;;;;46.38;21.48;;;;;;;;;;5049878;28;20071;-71
2022/12/14 09:16:02;;;;;;;50.97;22.75;;;;;;;;;;5049472;28;20049;-71
2022/12/14 09:18:29;;;;;;;56.22;23.50;;;;;;;;;;5040052;28;20056;-71
2022/12/14 09:20:57;;;;;;;45.53;20.25;;;;;;;;;;5042619;28;20132;-71
2022/12/14 09:23:25;;;;;;;52.60;21.73;;;;;;;;;;5058262;28;20499;-71
2022/12/14 09:26:01;;;;;;;50.20;22.42;;;;;;;;;;5040882;28;20053;-71
2022/12/14 09:28:29;;;;;;;48.47;22.42;;;;;;;;;;5044966;28;20107;-71
2022/12/14 09:30:57;;;;;;;50.83;21.60;;;;;;;;;;5045639;28;20057;-71
2022/12/14 09:33:24;;;;;;;46.47;20.73;;;;;;;;;;5048056;28;20072;-71
2022/12/14 09:35:51;;;;;;;48.35;20.30;;;;;;;;;;5052350;28;20056;-71
2022/12/14 09:38:19;;;;;;;48.22;21.05;;;;;;;;;;5045263;28;20048;-71
2022/12/14 09:40:49;;;;;;;46.03;21.45;;;;;;;;;;5046818;28;20049;-71
2022/12/14 09:43:27;;;;;;;55.92;22.75;;;;;;;;;;5050978;28;20068;-71
2022/12/14 09:45:55;;;;;;;44.85;20.63;;;;;;;;;;5045451;28;20059;-71
2022/12/14 09:48:25;;;;;;;47.45;21.75;;;;;;;;;;5047963;28;20053;-71
2022/12/14 09:50:53;;;;;;;47.50;21.08;;;;;;;;;;5071416;28;20054;-71
2022/12/14 09:53:21;;;;;;;45.75;20.20;;;;;;;;;;5071145;28;20049;-71
2022/12/14 09:55:50;;;;;;;45.97;20.85;;;;;;;;;;5062816;28;20044;-71
2022/12/14 09:58:20;;;;;;;44.42;19.63;;;;;;;;;;5048171;28;20502;-72
2022/12/14 10:00:49;;;;;;;43.85;19.63;;;;;;;;;;5066829;28;20402;-71
2022/12/14 10:03:24;;;;;;;40.30;19.20;;;;;;;;;;5061763;28;20056;-71
2022/12/14 10:06:00;;;;;;;38.58;19.10;;;;;;;;;;5062694;28;20064;-71
2022/12/14 10:08:31;;;;;;;41.10;17.33;;;;;;;;;;5053591;28;20056;-72
2022/12/14 10:11:03;;;;;;;36.83;16.98;;;;;;;;;;5045581;28;20124;-71
2022/12/14 10:13:37;;;;;;;36.28;16.23;;;;;;;;;;5066893;28;20044;-71
2022/12/14 10:16:10;;;;;;;33.95;16.67;;;;;;;;;;5066509;28;20047;-71
2022/12/14 10:18:50;;;;;;;30.45;15.05;;;;;;;;;;5061617;28;20070;-72
2022/12/14 10:21:19;;;;;;;33.08;15.15;;;;;;;;;;5075734;28;20679;-72
2022/12/14 10:23:58;;;;;;;30.23;14.00;;;;;;;;;;5055001;28;20593;-71
2022/12/14 10:26:27;;;;;;;35.15;15.05;;;;;;;;;;5068894;28;20048;-71
2022/12/14 10:28:59;;;;;;;28.35;13.55;;;;;;;;;;5057831;28;20052;-71
2022/12/14 10:31:28;;;;;;;32.67;14.52;;;;;;;;;;5063882;28;20682;-71
2022/12/14 10:34:00;;;;;;;24.85;12.48;;;;;;;;;;5065226;28;20040;-72
2022/12/14 10:36:29;;;;;;;27.98;13.48;;;;;;;;;;5049567;28;20048;-72
2022/12/14 10:38:58;;;;;;;27.73;13.57;;;;;;;;;;5053335;28;20048;-71
2022/12/14 10:41:29;;;;;;;26.25;13.40;;;;;;;;;;5046366;28;20053;-71
2022/12/14 10:44:01;;;;;;;28.02;13.82;;;;;;;;;;5065738;28;20053;-71
2022/12/14 10:46:31;;;;;;;27.10;13.20;;;;;;;;;;5047613;28;20056;-71
2022/12/14 10:49:03;;;;;;;26.50;11.73;;;;;;;;;;5067597;28;20079;-71
2022/12/14 10:51:36;;;;;;;22.85;12.07;;;;;;;;;;5072902;28;20048;-71
2022/12/14 10:54:07;;;;;;;23.45;11.88;;;;;;;;;;5069914;28;20065;-71
2022/12/14 10:56:36;;;;;;;22.58;10.80;;;;;;;;;;5062752;28;20055;-71
2022/12/14 10:59:29;;;;;;;31.15;12.50;;;;;;;;;;5068269;28;20049;-72
2022/12/14 11:02:00;;;;;;;20.88;11.63;;;;;;;;;;5049794;28;20406;-71
2022/12/14 11:04:34;;;;;;;21.63;10.68;;;;;;;;;;5071909;28;20380;-71
2022/12/14 11:07:02;;;;;;;20.95;10.43;;;;;;;;;;5048438;28;20055;-71
2022/12/14 11:09:30;;;;;;;24.10;11.57;;;;;;;;;;5069158;28;20097;-71
2022/12/14 11:11:58;;;;;;;22.20;10.10;;;;;;;;;;5068251;28;20063;-71
2022/12/14 11:14:27;;;;;;;21.55;10.23;;;;;;;;;;5058389;28;20497;-71
2022/12/14 11:16:54;;;;;;;22.15;10.90;;;;;;;;;;5050806;28;20105;-71
2022/12/14 11:19:23;;;;;;;26.50;11.13;;;;;;;;;;5067594;28;20063;-71
2022/12/14 11:21:51;;;;;;;23.35;11.52;;;;;;;;;;5065664;28;20376;-71
2022/12/14 11:24:22;;;;;;;23.45;11.80;;;;;;;;;;5066517;28;20052;-71
2022/12/14 11:26:50;;;;;;;27.35;11.82;;;;;;;;;;5059385;28;20056;-71
2022/12/14 11:29:20;;;;;;;24.63;11.75;;;;;;;;;;5045138;28;20063;-71
2022/12/14 11:31:51;;;;;;;24.90;11.77;;;;;;;;;;5066912;28;20056;-71
2022/12/14 11:34:21;;;;;;;27.40;13.13;;;;;;;;;;5067282;28;20076;-71
2022/12/14 11:36:49;;;;;;;26.55;11.77;;;;;;;;;;5067015;28;20048;-71
2022/12/14 11:39:21;;;;;;;25.95;12.52;;;;;;;;;;5068895;28;20075;-71
2022/12/14 11:41:49;;;;;;;27.80;12.77;;;;;;;;;;5062650;28;20049;-71
2022/12/14 11:44:25;;;;;;;27.05;12.80;;;;;;;;;;5065052;28;20048;-71
2022/12/14 11:46:55;;;;;;;28.52;12.75;;;;;;;;;;5067427;28;20436;-71
2022/12/14 11:49:24;;;;;;;25.90;12.30;;;;;;;;;;5040003;28;20060;-71
2022/12/14 11:51:55;;;;;;;24.17;11.82;;;;;;;;;;5042321;28;20051;-71
2022/12/14 11:54:22;;;;;;;21.88;10.93;;;;;;;;;;5044537;28;20054;-71
2022/12/14 11:56:50;;;;;;;20.77;10.30;;;;;;;;;;5038965;28;20048;-71
2022/12/14 11:59:18;;;;;;;22.33;9.48;;;;;;;;;;5049096;28;20044;-71
2022/12/14 12:01:45;;;;;;;17.65;8.48;;;;;;;;;;5044079;28;20212;-71
2022/12/14 12:04:16;;;;;;;19.60;9.13;;;;;;;;;;5049498;28;20045;-71
2022/12/14 12:06:43;;;;;;;20.63;8.80;;;;;;;;;;5045707;28;20076;-71
2022/12/14 12:09:20;;;;;;;16.00;7.90;;;;;;;;;;5047830;28;20041;-71
2022/12/14 12:11:47;;;;;;;19.02;8.18;;;;;;;;;;5044878;28;20049;-71
2022/12/14 12:14:23;;;;;;;16.25;7.75;;;;;;;;;;5050225;28;20048;-71
2022/12/14 12:16:52;;;;;;;16.48;8.05;;;;;;;;;;5044939;28;20056;-71
2022/12/14 12:19:23;;;;;;;19.10;8.52;;;;;;;;;;5043805;28;20055;-72
2022/12/14 12:21:51;;;;;;;19.30;8.93;;;;;;;;;;5048906;28;20040;-71
2022/12/14 12:24:21;;;;;;;13.63;6.93;;;;;;;;;;5052972;28;20124;-71
2022/12/14 12:26:50;;;;;;;16.65;7.45;;;;;;;;;;5045945;28;20403;-71
2022/12/14 12:29:21;;;;;;;14.13;7.07;;;;;;;;;;5043749;28;20415;-71
2022/12/14 12:31:52;;;;;;;14.02;6.90;;;;;;;;;;5045732;28;20591;-71
2022/12/14 12:34:22;;;;;;;16.35;7.78;;;;;;;;;;5045342;28;20064;-72
2022/12/14 12:36:51;;;;;;;21.63;9.50;;;;;;;;;;5043866;28;20466;-72
2022/12/14 12:39:20;;;;;;;14.48;6.88;;;;;;;;;;5047949;28;20045;-72
2022/12/14 12:41:52;;;;;;;15.15;6.90;;;;;;;;;;5051967;28;20060;-72
2022/12/14 12:44:28;;;;;;;16.08;6.80;;;;;;;;;;5044048;28;20076;-72
2022/12/14 12:46:59;;;;;;;14.82;7.63;;;;;;;;;;5047137;28;20053;-72
2022/12/14 12:49:28;;;;;;;16.10;7.65;;;;;;;;;;5052700;28;20053;-71
2022/12/14 12:51:58;;;;;;;14.95;7.25;;;;;;;;;;5068841;28;20047;-72
2022/12/14 12:54:29;;;;;;;13.80;6.70;;;;;;;;;;5052022;28;20565;-72
2022/12/14 12:56:58;;;;;;;13.77;6.55;;;;;;;;;;5065874;28;20045;-72
2022/12/14 12:59:31;;;;;;;15.77;6.90;;;;;;;;;;5068459;28;20538;-72
2022/12/14 13:02:01;;;;;;;23.38;8.32;;;;;;;;;;5045867;28;20388;-72
2022/12/14 13:04:37;;;;;;;18.95;7.80;;;;;;;;;;5066919;28;20067;-72
2022/12/14 13:07:07;;;;;;;19.13;7.88;;;;;;;;;;5045751;28;20052;-72
2022/12/14 13:09:38;;;;;;;18.58;7.63;;;;;;;;;;5042970;28;20497;-72
2022/12/14 13:12:07;;;;;;;15.02;8.02;;;;;;;;;;5045433;28;20052;-72
2022/12/14 13:14:36;;;;;;;15.20;8.38;;;;;;;;;;5044789;28;20052;-72
2022/12/14 13:17:05;;;;;;;20.58;8.38;;;;;;;;;;5062681;28;20094;-72
2022/12/14 13:19:38;;;;;;;18.35;8.52;;;;;;;;;;5070770;28;20047;-72
2022/12/14 13:22:06;;;;;;;16.95;8.32;;;;;;;;;;5070033;28;20040;-72
2022/12/14 13:24:33;;;;;;;18.65;8.20;;;;;;;;;;5068092;28;20060;-72
2022/12/14 13:27:17;;;;;;;20.38;8.55;;;;;;;;;;5070302;28;20052;-72
2022/12/14 13:29:52;;;;;;;16.42;7.78;;;;;;;;;;5069929;28;20539;-72
2022/12/14 13:32:30;;;;;;;16.30;8.35;;;;;;;;;;5062673;28;20068;-72
2022/12/14 13:35:05;;;;;;;21.40;8.98;;;;;;;;;;5065220;28;20045;-72
2022/12/14 13:37:43;;;;;;;18.70;7.90;;;;;;;;;;5069722;28;20756;-72
2022/12/14 13:40:19;;;;;;;18.45;8.90;;;;;;;;;;5053765;28;20056;-72
2022/12/14 13:42:52;;;;;;;20.92;8.63;;;;;;;;;;5068341;28;20067;-73
2022/12/14 13:45:20;;;;;;;16.33;8.23;;;;;;;;;;5049295;28;20056;-72
2022/12/14 13:47:54;;;;;;;19.15;9.05;;;;;;;;;;5038082;28;20072;-72
2022/12/14 13:50:26;;;;;;;20.55;9.43;;;;;;;;;;5038937;28;20132;-72
2022/12/14 13:52:56;;;;;;;17.58;8.80;;;;;;;;;;5043593;28;20166;-72
2022/12/14 13:55:28;;;;;;;22.40;9.15;;;;;;;;;;5040845;28;20071;-72
2022/12/14 13:58:06;;;;;;;17.67;8.80;;;;;;;;;;5037239;28;20049;-72
2022/12/14 14:00:53;;;;;;;21.52;9.38;;;;;;;;;;5040878;28;20213;-72
2022/12/14 14:03:35;;;;;;;23.38;9.55;;;;;;;;;;5036671;28;20392;-73
2022/12/14 14:06:08;;;;;;;21.63;9.68;;;;;;;;;;5038029;28;20140;-72
2022/12/14 14:08:36;;;;;;;21.30;9.47;;;;;;;;;;5041446;28;20049;-72
2022/12/14 14:11:20;;;;;;;17.73;9.57;;;;;;;;;;5045369;28;20287;-73
2022/12/14 14:13:59;;;;;;;19.33;9.73;;;;;;;;;;5042722;28;20478;-72
2022/12/14 14:16:31;;;;;;;21.45;11.10;;;;;;;;;;5044342;28;20148;-72
2022/12/14 14:19:01;;;;;;;21.00;10.00;;;;;;;;;;5039496;28;20055;-72
2022/12/14 14:21:39;;;;;;;17.92;8.95;;;;;;;;;;5039132;28;20049;-72
2022/12/14 14:24:19;;;;;;;19.17;9.23;;;;;;;;;;5044332;28;20107;-72
2022/12/14 14:26:59;;;;;;;17.52;8.82;;;;;;;;;;5033690;28;20081;-72
2022/12/14 14:29:27;;;;;;;17.50;9.80;;;;;;;;;;5038369;28;20416;-72
2022/12/14 14:31:59;;;;;;;20.98;10.02;;;;;;;;;;5037347;28;20083;-73
2022/12/14 14:34:36;;;;;;;18.45;9.35;;;;;;;;;;5043649;28;20131;-73
2022/12/14 14:37:15;;;;;;;25.02;11.57;;;;;;;;;;5049090;28;20052;-72
2022/12/14 14:39:43;;;;;;;17.17;8.90;;;;;;;;;;5039649;28;20045;-73
2022/12/14 14:42:18;;;;;;;18.88;8.98;;;;;;;;;;5045314;28;20433;-73
2022/12/14 14:44:50;;;;;;;18.20;9.00;;;;;;;;;;5040274;28;20049;-73
2022/12/14 14:47:21;;;;;;;18.95;9.13;;;;;;;;;;5043819;28;20377;-73